Terminal Aerodrome Forecast
Issued by NWS

Home | Current Version | Previous Version | Text Only | Print | Product List | Glossary On
Versions: 1 2 3 4 5 6 7 8 9 10 11 12 13 14 15 16 17 18 19 20 21 22 23 24 25 26
678
FTUS42 KFFC 241359 AAA
TAFRYY
TAF AMD
KRYY 241359Z 2414/2512 32010G18KT P6SM BKN015
      TEMPO 2414/2416 SCT020
     FM241600 31010KT P6SM FEW020
     FM241800 31008KT P6SM SKC
     FM250000 29003KT P6SM SKC=

USA.gov is the U.S. government's official web portal to all federal, state and local government web resources and services.